sensor_id;sensor_type;location;lat;lon;timestamp;P1;durP1;ratioP1;P2;durP2;ratioP2
11681;SDS011;5897;42.640;23.310;2023-10-08T00:02:22;5.50;;;3.67;;
11681;SDS011;5897;42.640;23.310;2023-10-08T00:04:52;6.35;;;3.78;;
11681;SDS011;5897;42.640;23.310;2023-10-08T00:07:19;6.15;;;3.85;;
11681;SDS011;5897;42.640;23.310;2023-10-08T00:09:48;5.80;;;3.75;;
11681;SDS011;5897;42.640;23.310;2023-10-08T00:12:16;5.30;;;4.03;;
11681;SDS011;5897;42.640;23.310;2023-10-08T00:14:44;6.25;;;3.92;;
11681;SDS011;5897;42.640;23.310;2023-10-08T00:17:14;6.55;;;3.85;;
11681;SDS011;5897;42.640;23.310;2023-10-08T00:19:42;6.78;;;3.80;;
11681;SDS011;5897;42.640;23.310;2023-10-08T00:22:10;5.78;;;3.53;;
11681;SDS011;5897;42.640;23.310;2023-10-08T00:24:38;4.85;;;3.75;;
11681;SDS011;5897;42.640;23.310;2023-10-08T00:27:07;6.15;;;4.18;;
11681;SDS011;5897;42.640;23.310;2023-10-08T00:29:34;5.80;;;3.58;;
11681;SDS011;5897;42.640;23.310;2023-10-08T00:32:04;6.05;;;3.58;;
11681;SDS011;5897;42.640;23.310;2023-10-08T00:34:37;6.53;;;3.58;;
11681;SDS011;5897;42.640;23.310;2023-10-08T00:37:06;6.03;;;3.72;;
11681;SDS011;5897;42.640;23.310;2023-10-08T00:39:36;6.88;;;3.45;;
11681;SDS011;5897;42.640;23.310;2023-10-08T00:42:05;6.10;;;3.63;;
11681;SDS011;5897;42.640;23.310;2023-10-08T00:44:33;4.32;;;3.65;;
11681;SDS011;5897;42.640;23.310;2023-10-08T00:47:06;5.82;;;3.38;;
11681;SDS011;5897;42.640;23.310;2023-10-08T00:49:36;4.90;;;3.72;;
11681;SDS011;5897;42.640;23.310;2023-10-08T00:52:19;8.07;;;4.03;;
11681;SDS011;5897;42.640;23.310;2023-10-08T00:54:56;4.45;;;3.35;;
11681;SDS011;5897;42.640;23.310;2023-10-08T00:57:34;9.40;;;4.25;;
11681;SDS011;5897;42.640;23.310;2023-10-08T01:00:04;7.03;;;3.63;;
11681;SDS011;5897;42.640;23.310;2023-10-08T01:02:40;4.50;;;3.53;;
11681;SDS011;5897;42.640;23.310;2023-10-08T01:05:14;6.03;;;3.35;;
11681;SDS011;5897;42.640;23.310;2023-10-08T01:07:45;5.28;;;3.70;;
11681;SDS011;5897;42.640;23.310;2023-10-08T01:10:15;6.60;;;3.92;;
11681;SDS011;5897;42.640;23.310;2023-10-08T01:12:45;7.22;;;4.38;;
11681;SDS011;5897;42.640;23.310;2023-10-08T01:15:29;6.50;;;4.00;;
11681;SDS011;5897;42.640;23.310;2023-10-08T01:17:57;9.10;;;4.18;;
11681;SDS011;5897;42.640;23.310;2023-10-08T01:20:26;5.60;;;4.00;;
11681;SDS011;5897;42.640;23.310;2023-10-08T01:23:01;5.95;;;3.60;;
11681;SDS011;5897;42.640;23.310;2023-10-08T01:25:30;8.32;;;4.03;;
11681;SDS011;5897;42.640;23.310;2023-10-08T01:27:56;4.88;;;3.50;;
11681;SDS011;5897;42.640;23.310;2023-10-08T01:30:26;6.55;;;3.63;;
11681;SDS011;5897;42.640;23.310;2023-10-08T01:32:59;5.78;;;3.95;;
11681;SDS011;5897;42.640;23.310;2023-10-08T01:35:28;6.75;;;3.65;;
11681;SDS011;5897;42.640;23.310;2023-10-08T01:37:57;7.72;;;3.90;;
11681;SDS011;5897;42.640;23.310;2023-10-08T01:40:27;9.90;;;4.10;;
11681;SDS011;5897;42.640;23.310;2023-10-08T01:42:55;7.35;;;4.35;;
11681;SDS011;5897;42.640;23.310;2023-10-08T01:45:25;5.78;;;4.28;;
11681;SDS011;5897;42.640;23.310;2023-10-08T01:47:54;8.73;;;4.05;;
11681;SDS011;5897;42.640;23.310;2023-10-08T01:50:22;6.03;;;4.10;;
11681;SDS011;5897;42.640;23.310;2023-10-08T01:52:50;6.03;;;4.03;;
11681;SDS011;5897;42.640;23.310;2023-10-08T01:55:17;7.10;;;3.97;;
11681;SDS011;5897;42.640;23.310;2023-10-08T01:57:46;6.00;;;4.10;;
11681;SDS011;5897;42.640;23.310;2023-10-08T02:00:13;9.18;;;3.95;;
11681;SDS011;5897;42.640;23.310;2023-10-08T02:02:44;7.38;;;3.88;;
11681;SDS011;5897;42.640;23.310;2023-10-08T02:05:11;7.43;;;4.20;;
11681;SDS011;5897;42.640;23.310;2023-10-08T02:07:40;6.07;;;3.92;;
11681;SDS011;5897;42.640;23.310;2023-10-08T02:10:08;5.85;;;3.83;;
11681;SDS011;5897;42.640;23.310;2023-10-08T02:12:36;6.45;;;3.85;;
11681;SDS011;5897;42.640;23.310;2023-10-08T02:15:04;6.72;;;4.20;;
11681;SDS011;5897;42.640;23.310;2023-10-08T02:17:32;5.57;;;4.10;;
11681;SDS011;5897;42.640;23.310;2023-10-08T02:19:59;6.70;;;4.40;;
11681;SDS011;5897;42.640;23.310;2023-10-08T02:22:29;5.78;;;4.03;;
11681;SDS011;5897;42.640;23.310;2023-10-08T02:24:56;5.50;;;4.18;;
11681;SDS011;5897;42.640;23.310;2023-10-08T02:27:26;5.90;;;4.32;;
11681;SDS011;5897;42.640;23.310;2023-10-08T02:29:53;6.32;;;4.68;;
11681;SDS011;5897;42.640;23.310;2023-10-08T02:32:22;7.40;;;5.13;;
11681;SDS011;5897;42.640;23.310;2023-10-08T02:34:48;5.43;;;4.25;;
11681;SDS011;5897;42.640;23.310;2023-10-08T02:37:15;8.40;;;5.15;;
11681;SDS011;5897;42.640;23.310;2023-10-08T02:39:44;7.75;;;4.40;;
11681;SDS011;5897;42.640;23.310;2023-10-08T02:42:10;5.80;;;4.22;;
11681;SDS011;5897;42.640;23.310;2023-10-08T02:44:39;5.82;;;4.47;;
11681;SDS011;5897;42.640;23.310;2023-10-08T02:47:07;5.63;;;4.03;;
11681;SDS011;5897;42.640;23.310;2023-10-08T02:49:36;6.68;;;4.30;;
11681;SDS011;5897;42.640;23.310;2023-10-08T02:52:05;6.90;;;4.57;;
11681;SDS011;5897;42.640;23.310;2023-10-08T02:54:34;5.70;;;4.45;;
11681;SDS011;5897;42.640;23.310;2023-10-08T02:57:03;6.43;;;4.05;;
11681;SDS011;5897;42.640;23.310;2023-10-08T02:59:35;8.45;;;4.80;;
11681;SDS011;5897;42.640;23.310;2023-10-08T03:02:06;5.68;;;4.72;;
11681;SDS011;5897;42.640;23.310;2023-10-08T03:04:40;7.22;;;4.68;;
11681;SDS011;5897;42.640;23.310;2023-10-08T03:07:08;5.63;;;4.63;;
11681;SDS011;5897;42.640;23.310;2023-10-08T03:09:46;6.07;;;4.28;;
11681;SDS011;5897;42.640;23.310;2023-10-08T03:12:15;8.25;;;4.45;;
11681;SDS011;5897;42.640;23.310;2023-10-08T03:14:42;7.60;;;4.85;;
11681;SDS011;5897;42.640;23.310;2023-10-08T03:17:27;8.00;;;4.53;;
11681;SDS011;5897;42.640;23.310;2023-10-08T03:19:56;6.10;;;4.20;;
11681;SDS011;5897;42.640;23.310;2023-10-08T03:22:43;7.03;;;4.45;;
11681;SDS011;5897;42.640;23.310;2023-10-08T03:25:11;5.68;;;3.80;;
11681;SDS011;5897;42.640;23.310;2023-10-08T03:27:44;7.25;;;4.32;;
11681;SDS011;5897;42.640;23.310;2023-10-08T03:30:13;5.38;;;3.90;;
11681;SDS011;5897;42.640;23.310;2023-10-08T03:32:40;5.80;;;4.18;;
11681;SDS011;5897;42.640;23.310;2023-10-08T03:35:10;7.57;;;4.05;;
11681;SDS011;5897;42.640;23.310;2023-10-08T03:37:37;5.53;;;3.70;;
11681;SDS011;5897;42.640;23.310;2023-10-08T03:40:11;6.97;;;5.00;;
11681;SDS011;5897;42.640;23.310;2023-10-08T03:42:50;8.65;;;5.95;;
11681;SDS011;5897;42.640;23.310;2023-10-08T03:45:20;7.10;;;4.55;;
11681;SDS011;5897;42.640;23.310;2023-10-08T03:48:01;8.48;;;4.50;;
11681;SDS011;5897;42.640;23.310;2023-10-08T03:50:32;6.00;;;3.97;;
11681;SDS011;5897;42.640;23.310;2023-10-08T03:53:06;6.40;;;4.30;;
11681;SDS011;5897;42.640;23.310;2023-10-08T03:55:36;5.53;;;3.85;;
11681;SDS011;5897;42.640;23.310;2023-10-08T03:58:06;6.40;;;3.95;;
11681;SDS011;5897;42.640;23.310;2023-10-08T04:00:37;5.72;;;3.90;;
11681;SDS011;5897;42.640;23.310;2023-10-08T04:03:07;6.30;;;3.97;;
11681;SDS011;5897;42.640;23.310;2023-10-08T04:05:38;6.72;;;3.92;;
11681;SDS011;5897;42.640;23.310;2023-10-08T04:08:24;7.28;;;4.40;;
11681;SDS011;5897;42.640;23.310;2023-10-08T04:11:07;7.60;;;4.22;;
11681;SDS011;5897;42.640;23.310;2023-10-08T04:13:48;7.05;;;4.15;;
11681;SDS011;5897;42.640;23.310;2023-10-08T04:16:17;9.05;;;4.45;;
11681;SDS011;5897;42.640;23.310;2023-10-08T04:18:45;8.50;;;5.80;;
11681;SDS011;5897;42.640;23.310;2023-10-08T04:21:17;19.80;;;17.80;;
11681;SDS011;5897;42.640;23.310;2023-10-08T04:23:46;14.38;;;10.77;;
11681;SDS011;5897;42.640;23.310;2023-10-08T04:26:16;7.30;;;4.85;;
11681;SDS011;5897;42.640;23.310;2023-10-08T04:28:43;7.20;;;4.32;;
11681;SDS011;5897;42.640;23.310;2023-10-08T04:31:14;5.47;;;4.15;;
11681;SDS011;5897;42.640;23.310;2023-10-08T04:33:44;6.25;;;4.40;;
11681;SDS011;5897;42.640;23.310;2023-10-08T04:36:12;10.38;;;4.13;;
11681;SDS011;5897;42.640;23.310;2023-10-08T04:38:45;7.35;;;4.40;;
11681;SDS011;5897;42.640;23.310;2023-10-08T04:41:13;7.78;;;4.15;;
11681;SDS011;5897;42.640;23.310;2023-10-08T04:43:44;10.13;;;4.40;;
11681;SDS011;5897;42.640;23.310;2023-10-08T04:46:14;7.55;;;4.28;;
11681;SDS011;5897;42.640;23.310;2023-10-08T04:49:05;7.93;;;4.55;;
11681;SDS011;5897;42.640;23.310;2023-10-08T04:51:43;9.80;;;4.32;;
11681;SDS011;5897;42.640;23.310;2023-10-08T04:54:12;5.43;;;4.00;;
11681;SDS011;5897;42.640;23.310;2023-10-08T04:56:42;5.05;;;3.60;;
11681;SDS011;5897;42.640;23.310;2023-10-08T04:59:09;10.55;;;4.10;;
11681;SDS011;5897;42.640;23.310;2023-10-08T05:01:37;7.22;;;4.03;;
11681;SDS011;5897;42.640;23.310;2023-10-08T05:04:12;6.22;;;4.13;;
11681;SDS011;5897;42.640;23.310;2023-10-08T05:06:51;5.60;;;4.13;;
11681;SDS011;5897;42.640;23.310;2023-10-08T05:09:44;4.68;;;3.90;;
11681;SDS011;5897;42.640;23.310;2023-10-08T05:12:17;8.43;;;4.20;;
11681;SDS011;5897;42.640;23.310;2023-10-08T05:15:03;8.10;;;4.00;;
11681;SDS011;5897;42.640;23.310;2023-10-08T05:17:58;7.40;;;4.20;;
11681;SDS011;5897;42.640;23.310;2023-10-08T05:20:38;8.43;;;4.03;;
11681;SDS011;5897;42.640;23.310;2023-10-08T05:23:25;6.82;;;4.68;;
11681;SDS011;5897;42.640;23.310;2023-10-08T05:26:34;7.15;;;4.25;;
11681;SDS011;5897;42.640;23.310;2023-10-08T05:29:10;7.28;;;4.55;;
11681;SDS011;5897;42.640;23.310;2023-10-08T05:32:04;8.02;;;4.82;;
11681;SDS011;5897;42.640;23.310;2023-10-08T05:34:48;10.90;;;5.03;;
11681;SDS011;5897;42.640;23.310;2023-10-08T05:37:37;7.57;;;4.82;;
11681;SDS011;5897;42.640;23.310;2023-10-08T05:40:07;9.23;;;5.35;;
11681;SDS011;5897;42.640;23.310;2023-10-08T05:42:47;6.65;;;4.60;;
11681;SDS011;5897;42.640;23.310;2023-10-08T05:45:24;8.50;;;4.82;;
11681;SDS011;5897;42.640;23.310;2023-10-08T05:47:56;7.88;;;5.05;;
11681;SDS011;5897;42.640;23.310;2023-10-08T05:50:40;6.43;;;4.60;;
11681;SDS011;5897;42.640;23.310;2023-10-08T05:53:20;8.82;;;4.63;;
11681;SDS011;5897;42.640;23.310;2023-10-08T05:56:08;7.45;;;4.60;;
11681;SDS011;5897;42.640;23.310;2023-10-08T05:58:54;7.15;;;4.60;;
11681;SDS011;5897;42.640;23.310;2023-10-08T06:01:40;10.25;;;4.70;;
11681;SDS011;5897;42.640;23.310;2023-10-08T06:04:11;8.70;;;4.38;;
11681;SDS011;5897;42.640;23.310;2023-10-08T06:06:56;8.48;;;4.78;;
11681;SDS011;5897;42.640;23.310;2023-10-08T06:09:37;8.27;;;4.65;;
11681;SDS011;5897;42.640;23.310;2023-10-08T06:12:05;7.50;;;4.53;;
11681;SDS011;5897;42.640;23.310;2023-10-08T06:14:39;10.10;;;5.13;;
11681;SDS011;5897;42.640;23.310;2023-10-08T06:17:18;9.98;;;5.25;;
11681;SDS011;5897;42.640;23.310;2023-10-08T06:20:20;9.82;;;5.03;;
11681;SDS011;5897;42.640;23.310;2023-10-08T06:22:50;8.25;;;4.53;;
11681;SDS011;5897;42.640;23.310;2023-10-08T06:25:24;9.68;;;4.90;;
11681;SDS011;5897;42.640;23.310;2023-10-08T06:27:53;6.35;;;4.75;;
11681;SDS011;5897;42.640;23.310;2023-10-08T06:30:25;10.10;;;4.30;;
11681;SDS011;5897;42.640;23.310;2023-10-08T06:32:54;6.75;;;4.47;;
11681;SDS011;5897;42.640;23.310;2023-10-08T06:35:22;12.57;;;4.53;;
11681;SDS011;5897;42.640;23.310;2023-10-08T06:37:52;6.78;;;4.60;;
11681;SDS011;5897;42.640;23.310;2023-10-08T06:40:24;9.95;;;5.57;;
11681;SDS011;5897;42.640;23.310;2023-10-08T06:43:11;9.93;;;5.93;;
11681;SDS011;5897;42.640;23.310;2023-10-08T06:45:41;8.90;;;5.28;;
11681;SDS011;5897;42.640;23.310;2023-10-08T06:48:09;10.43;;;5.93;;
11681;SDS011;5897;42.640;23.310;2023-10-08T06:50:43;8.52;;;5.18;;
11681;SDS011;5897;42.640;23.310;2023-10-08T06:53:10;12.88;;;5.93;;
11681;SDS011;5897;42.640;23.310;2023-10-08T06:55:39;10.88;;;5.30;;
11681;SDS011;5897;42.640;23.310;2023-10-08T06:58:07;9.25;;;5.18;;
11681;SDS011;5897;42.640;23.310;2023-10-08T07:00:35;13.07;;;5.10;;
11681;SDS011;5897;42.640;23.310;2023-10-08T07:03:13;10.20;;;5.60;;
11681;SDS011;5897;42.640;23.310;2023-10-08T07:05:41;16.30;;;6.00;;
11681;SDS011;5897;42.640;23.310;2023-10-08T07:08:10;12.68;;;5.40;;
11681;SDS011;5897;42.640;23.310;2023-10-08T07:10:40;11.20;;;5.45;;
11681;SDS011;5897;42.640;23.310;2023-10-08T07:13:11;16.77;;;5.43;;
11681;SDS011;5897;42.640;23.310;2023-10-08T07:15:42;10.10;;;5.50;;
11681;SDS011;5897;42.640;23.310;2023-10-08T07:18:10;11.27;;;5.60;;
11681;SDS011;5897;42.640;23.310;2023-10-08T07:20:40;9.15;;;5.57;;
11681;SDS011;5897;42.640;23.310;2023-10-08T07:23:11;9.27;;;5.65;;
11681;SDS011;5897;42.640;23.310;2023-10-08T07:25:51;10.50;;;5.20;;
11681;SDS011;5897;42.640;23.310;2023-10-08T07:28:22;9.02;;;5.10;;
11681;SDS011;5897;42.640;23.310;2023-10-08T07:30:50;13.07;;;5.15;;
11681;SDS011;5897;42.640;23.310;2023-10-08T07:33:17;12.38;;;5.10;;
11681;SDS011;5897;42.640;23.310;2023-10-08T07:35:46;6.70;;;3.80;;
11681;SDS011;5897;42.640;23.310;2023-10-08T07:38:22;4.57;;;3.22;;
11681;SDS011;5897;42.640;23.310;2023-10-08T07:40:55;3.88;;;2.83;;
11681;SDS011;5897;42.640;23.310;2023-10-08T07:43:22;5.55;;;2.67;;
11681;SDS011;5897;42.640;23.310;2023-10-08T07:45:49;4.38;;;3.17;;
11681;SDS011;5897;42.640;23.310;2023-10-08T07:48:19;3.67;;;2.97;;
11681;SDS011;5897;42.640;23.310;2023-10-08T07:50:50;5.63;;;2.65;;
11681;SDS011;5897;42.640;23.310;2023-10-08T07:53:16;5.45;;;3.10;;
11681;SDS011;5897;42.640;23.310;2023-10-08T07:55:45;3.58;;;2.92;;
11681;SDS011;5897;42.640;23.310;2023-10-08T07:58:16;5.72;;;3.15;;
11681;SDS011;5897;42.640;23.310;2023-10-08T08:00:44;3.72;;;2.92;;
11681;SDS011;5897;42.640;23.310;2023-10-08T08:03:20;4.97;;;2.88;;
11681;SDS011;5897;42.640;23.310;2023-10-08T08:05:48;6.30;;;3.03;;
11681;SDS011;5897;42.640;23.310;2023-10-08T08:08:22;5.25;;;3.00;;
11681;SDS011;5897;42.640;23.310;2023-10-08T08:10:52;3.60;;;2.75;;
11681;SDS011;5897;42.640;23.310;2023-10-08T08:13:23;4.50;;;3.33;;
11681;SDS011;5897;42.640;23.310;2023-10-08T08:15:53;7.47;;;3.40;;
11681;SDS011;5897;42.640;23.310;2023-10-08T08:18:23;4.22;;;3.10;;
11681;SDS011;5897;42.640;23.310;2023-10-08T08:21:00;6.35;;;3.58;;
11681;SDS011;5897;42.640;23.310;2023-10-08T08:23:28;6.35;;;3.30;;
11681;SDS011;5897;42.640;23.310;2023-10-08T08:25:56;5.88;;;3.20;;
11681;SDS011;5897;42.640;23.310;2023-10-08T08:28:36;5.38;;;3.45;;
11681;SDS011;5897;42.640;23.310;2023-10-08T08:31:03;5.68;;;3.40;;
11681;SDS011;5897;42.640;23.310;2023-10-08T08:33:38;7.65;;;3.63;;
11681;SDS011;5897;42.640;23.310;2023-10-08T08:36:19;4.65;;;3.20;;
11681;SDS011;5897;42.640;23.310;2023-10-08T08:38:47;5.63;;;3.53;;
11681;SDS011;5897;42.640;23.310;2023-10-08T08:41:15;5.00;;;3.28;;
11681;SDS011;5897;42.640;23.310;2023-10-08T08:43:44;4.93;;;3.10;;
11681;SDS011;5897;42.640;23.310;2023-10-08T08:46:15;7.45;;;3.30;;
11681;SDS011;5897;42.640;23.310;2023-10-08T08:48:42;6.32;;;3.75;;
11681;SDS011;5897;42.640;23.310;2023-10-08T08:51:10;5.75;;;3.58;;
11681;SDS011;5897;42.640;23.310;2023-10-08T08:53:39;5.70;;;3.75;;
11681;SDS011;5897;42.640;23.310;2023-10-08T08:56:08;4.95;;;3.55;;
11681;SDS011;5897;42.640;23.310;2023-10-08T08:58:36;6.03;;;3.70;;
11681;SDS011;5897;42.640;23.310;2023-10-08T09:01:05;7.30;;;3.97;;
11681;SDS011;5897;42.640;23.310;2023-10-08T09:03:34;6.40;;;3.58;;
11681;SDS011;5897;42.640;23.310;2023-10-08T09:06:02;7.10;;;3.65;;
11681;SDS011;5897;42.640;23.310;2023-10-08T09:08:32;4.18;;;3.65;;
11681;SDS011;5897;42.640;23.310;2023-10-08T09:11:01;5.50;;;3.80;;
11681;SDS011;5897;42.640;23.310;2023-10-08T09:13:29;6.63;;;3.70;;
11681;SDS011;5897;42.640;23.310;2023-10-08T09:16:03;5.03;;;3.60;;
11681;SDS011;5897;42.640;23.310;2023-10-08T09:18:33;5.80;;;3.85;;
11681;SDS011;5897;42.640;23.310;2023-10-08T09:21:07;5.38;;;3.45;;
11681;SDS011;5897;42.640;23.310;2023-10-08T09:23:38;6.97;;;3.85;;
11681;SDS011;5897;42.640;23.310;2023-10-08T09:26:09;6.80;;;3.67;;
11681;SDS011;5897;42.640;23.310;2023-10-08T09:28:39;6.40;;;3.63;;
11681;SDS011;5897;42.640;23.310;2023-10-08T09:31:09;6.72;;;3.53;;
11681;SDS011;5897;42.640;23.310;2023-10-08T09:33:37;5.38;;;3.20;;
11681;SDS011;5897;42.640;23.310;2023-10-08T09:36:04;5.80;;;3.40;;
11681;SDS011;5897;42.640;23.310;2023-10-08T09:38:32;5.60;;;3.30;;
11681;SDS011;5897;42.640;23.310;2023-10-08T09:40:59;5.78;;;3.78;;
11681;SDS011;5897;42.640;23.310;2023-10-08T09:43:29;6.93;;;3.72;;
11681;SDS011;5897;42.640;23.310;2023-10-08T09:46:00;7.28;;;3.58;;
11681;SDS011;5897;42.640;23.310;2023-10-08T09:48:35;6.63;;;3.55;;
11681;SDS011;5897;42.640;23.310;2023-10-08T09:51:04;6.28;;;3.45;;
11681;SDS011;5897;42.640;23.310;2023-10-08T09:53:35;6.15;;;3.67;;
11681;SDS011;5897;42.640;23.310;2023-10-08T09:56:14;7.45;;;3.50;;
11681;SDS011;5897;42.640;23.310;2023-10-08T09:58:44;5.88;;;3.47;;
11681;SDS011;5897;42.640;23.310;2023-10-08T10:01:14;5.80;;;3.53;;
11681;SDS011;5897;42.640;23.310;2023-10-08T10:03:43;5.50;;;3.72;;
11681;SDS011;5897;42.640;23.310;2023-10-08T10:06:13;7.13;;;3.35;;
11681;SDS011;5897;42.640;23.310;2023-10-08T10:08:41;4.78;;;3.15;;
11681;SDS011;5897;42.640;23.310;2023-10-08T10:11:09;6.65;;;3.20;;
11681;SDS011;5897;42.640;23.310;2023-10-08T10:13:39;6.20;;;3.30;;
11681;SDS011;5897;42.640;23.310;2023-10-08T10:16:11;6.82;;;3.40;;
11681;SDS011;5897;42.640;23.310;2023-10-08T10:18:39;5.55;;;3.28;;
11681;SDS011;5897;42.640;23.310;2023-10-08T10:21:24;6.22;;;3.25;;
11681;SDS011;5897;42.640;23.310;2023-10-08T10:23:52;6.95;;;3.30;;
11681;SDS011;5897;42.640;23.310;2023-10-08T10:26:24;5.68;;;3.45;;
11681;SDS011;5897;42.640;23.310;2023-10-08T10:31:48;5.07;;;2.95;;
11681;SDS011;5897;42.640;23.310;2023-10-08T10:34:20;4.78;;;3.10;;
11681;SDS011;5897;42.640;23.310;2023-10-08T10:36:50;4.75;;;3.13;;
11681;SDS011;5897;42.640;23.310;2023-10-08T10:39:21;6.38;;;3.15;;
11681;SDS011;5897;42.640;23.310;2023-10-08T10:41:53;5.10;;;3.00;;
11681;SDS011;5897;42.640;23.310;2023-10-08T10:44:22;6.88;;;3.10;;
11681;SDS011;5897;42.640;23.310;2023-10-08T10:46:52;7.78;;;3.10;;
11681;SDS011;5897;42.640;23.310;2023-10-08T10:49:39;5.95;;;2.78;;
11681;SDS011;5897;42.640;23.310;2023-10-08T10:52:19;9.10;;;3.15;;
11681;SDS011;5897;42.640;23.310;2023-10-08T10:54:57;8.43;;;3.00;;
11681;SDS011;5897;42.640;23.310;2023-10-08T10:57:43;5.75;;;2.92;;
11681;SDS011;5897;42.640;23.310;2023-10-08T11:00:19;4.53;;;3.08;;
11681;SDS011;5897;42.640;23.310;2023-10-08T11:03:14;5.07;;;3.15;;
11681;SDS011;5897;42.640;23.310;2023-10-08T11:05:43;4.68;;;3.00;;
11681;SDS011;5897;42.640;23.310;2023-10-08T11:08:16;5.22;;;3.10;;
11681;SDS011;5897;42.640;23.310;2023-10-08T11:10:46;5.75;;;2.90;;
11681;SDS011;5897;42.640;23.310;2023-10-08T11:13:16;4.30;;;3.05;;
11681;SDS011;5897;42.640;23.310;2023-10-08T11:15:45;3.65;;;2.85;;
11681;SDS011;5897;42.640;23.310;2023-10-08T11:18:17;4.65;;;2.80;;
11681;SDS011;5897;42.640;23.310;2023-10-08T11:20:46;5.72;;;2.70;;
11681;SDS011;5897;42.640;23.310;2023-10-08T11:23:31;4.47;;;2.67;;
11681;SDS011;5897;42.640;23.310;2023-10-08T11:26:00;6.57;;;2.83;;
11681;SDS011;5897;42.640;23.310;2023-10-08T11:28:28;5.68;;;2.78;;
11681;SDS011;5897;42.640;23.310;2023-10-08T11:30:59;7.35;;;2.78;;
11681;SDS011;5897;42.640;23.310;2023-10-08T11:33:34;8.32;;;3.10;;
11681;SDS011;5897;42.640;23.310;2023-10-08T11:36:03;5.43;;;2.70;;
11681;SDS011;5897;42.640;23.310;2023-10-08T11:38:38;6.38;;;2.97;;
11681;SDS011;5897;42.640;23.310;2023-10-08T11:41:11;8.60;;;2.97;;
11681;SDS011;5897;42.640;23.310;2023-10-08T11:43:47;7.28;;;2.85;;
11681;SDS011;5897;42.640;23.310;2023-10-08T11:46:19;9.18;;;2.80;;
11681;SDS011;5897;42.640;23.310;2023-10-08T11:48:49;4.60;;;2.45;;
11681;SDS011;5897;42.640;23.310;2023-10-08T11:51:16;7.45;;;2.90;;
11681;SDS011;5897;42.640;23.310;2023-10-08T11:53:43;11.38;;;2.80;;
11681;SDS011;5897;42.640;23.310;2023-10-08T11:56:10;7.63;;;2.58;;
11681;SDS011;5897;42.640;23.310;2023-10-08T11:58:38;9.73;;;3.03;;
11681;SDS011;5897;42.640;23.310;2023-10-08T12:01:09;8.35;;;3.15;;
11681;SDS011;5897;42.640;23.310;2023-10-08T12:03:41;7.65;;;2.78;;
11681;SDS011;5897;42.640;23.310;2023-10-08T12:06:10;15.13;;;3.40;;
11681;SDS011;5897;42.640;23.310;2023-10-08T12:08:40;12.63;;;3.30;;
11681;SDS011;5897;42.640;23.310;2023-10-08T12:11:11;12.38;;;3.30;;
11681;SDS011;5897;42.640;23.310;2023-10-08T12:13:39;9.50;;;3.03;;
11681;SDS011;5897;42.640;23.310;2023-10-08T12:16:10;8.55;;;2.97;;
11681;SDS011;5897;42.640;23.310;2023-10-08T12:18:46;7.35;;;2.75;;
11681;SDS011;5897;42.640;23.310;2023-10-08T12:21:25;10.15;;;3.17;;
11681;SDS011;5897;42.640;23.310;2023-10-08T12:23:54;7.93;;;2.97;;
11681;SDS011;5897;42.640;23.310;2023-10-08T12:26:22;7.43;;;2.78;;
11681;SDS011;5897;42.640;23.310;2023-10-08T12:28:49;6.75;;;2.63;;
11681;SDS011;5897;42.640;23.310;2023-10-08T12:31:16;6.55;;;3.00;;
11681;SDS011;5897;42.640;23.310;2023-10-08T12:33:47;4.63;;;2.88;;
11681;SDS011;5897;42.640;23.310;2023-10-08T12:36:14;8.00;;;3.28;;
11681;SDS011;5897;42.640;23.310;2023-10-08T12:38:43;6.93;;;3.05;;
11681;SDS011;5897;42.640;23.310;2023-10-08T12:41:10;7.07;;;3.42;;
11681;SDS011;5897;42.640;23.310;2023-10-08T12:43:42;7.05;;;3.50;;
11681;SDS011;5897;42.640;23.310;2023-10-08T12:46:11;8.98;;;3.00;;
11681;SDS011;5897;42.640;23.310;2023-10-08T12:48:43;10.60;;;3.30;;
11681;SDS011;5897;42.640;23.310;2023-10-08T12:51:13;11.25;;;3.08;;
11681;SDS011;5897;42.640;23.310;2023-10-08T12:53:42;15.98;;;3.20;;
11681;SDS011;5897;42.640;23.310;2023-10-08T12:56:16;10.50;;;3.50;;
11681;SDS011;5897;42.640;23.310;2023-10-08T12:58:47;11.43;;;3.03;;
11681;SDS011;5897;42.640;23.310;2023-10-08T13:01:14;10.00;;;3.35;;
11681;SDS011;5897;42.640;23.310;2023-10-08T13:03:43;5.80;;;2.85;;
11681;SDS011;5897;42.640;23.310;2023-10-08T13:06:14;10.45;;;2.85;;
11681;SDS011;5897;42.640;23.310;2023-10-08T13:08:49;9.10;;;3.33;;
11681;SDS011;5897;42.640;23.310;2023-10-08T13:11:17;8.93;;;3.00;;
11681;SDS011;5897;42.640;23.310;2023-10-08T13:13:48;10.98;;;3.47;;
11681;SDS011;5897;42.640;23.310;2023-10-08T13:16:15;10.60;;;2.75;;
11681;SDS011;5897;42.640;23.310;2023-10-08T13:18:42;9.02;;;3.08;;
11681;SDS011;5897;42.640;23.310;2023-10-08T13:21:09;9.70;;;3.25;;
11681;SDS011;5897;42.640;23.310;2023-10-08T13:23:37;7.35;;;3.10;;
11681;SDS011;5897;42.640;23.310;2023-10-08T13:26:06;9.80;;;2.97;;
11681;SDS011;5897;42.640;23.310;2023-10-08T13:28:33;8.55;;;3.10;;
11681;SDS011;5897;42.640;23.310;2023-10-08T13:31:00;7.78;;;3.53;;
11681;SDS011;5897;42.640;23.310;2023-10-08T13:33:35;9.00;;;3.08;;
11681;SDS011;5897;42.640;23.310;2023-10-08T13:36:04;8.75;;;3.20;;
11681;SDS011;5897;42.640;23.310;2023-10-08T13:38:33;7.40;;;2.78;;
11681;SDS011;5897;42.640;23.310;2023-10-08T13:41:00;7.32;;;3.22;;
11681;SDS011;5897;42.640;23.310;2023-10-08T13:43:33;7.63;;;2.85;;
11681;SDS011;5897;42.640;23.310;2023-10-08T13:46:01;7.00;;;3.20;;
11681;SDS011;5897;42.640;23.310;2023-10-08T13:48:29;9.57;;;2.90;;
11681;SDS011;5897;42.640;23.310;2023-10-08T13:50:58;7.95;;;3.03;;
11681;SDS011;5897;42.640;23.310;2023-10-08T13:53:26;8.80;;;3.45;;
11681;SDS011;5897;42.640;23.310;2023-10-08T13:55:55;6.68;;;2.80;;
11681;SDS011;5897;42.640;23.310;2023-10-08T13:58:23;9.30;;;2.83;;
11681;SDS011;5897;42.640;23.310;2023-10-08T14:00:52;8.20;;;2.70;;
11681;SDS011;5897;42.640;23.310;2023-10-08T14:03:18;8.10;;;2.75;;
11681;SDS011;5897;42.640;23.310;2023-10-08T14:05:46;13.05;;;2.72;;
11681;SDS011;5897;42.640;23.310;2023-10-08T14:08:16;7.78;;;2.83;;
11681;SDS011;5897;42.640;23.310;2023-10-08T14:10:44;6.28;;;3.20;;
11681;SDS011;5897;42.640;23.310;2023-10-08T14:13:13;8.57;;;3.35;;
11681;SDS011;5897;42.640;23.310;2023-10-08T14:15:45;8.57;;;2.90;;
11681;SDS011;5897;42.640;23.310;2023-10-08T14:18:16;11.85;;;2.72;;
11681;SDS011;5897;42.640;23.310;2023-10-08T14:20:45;9.25;;;2.70;;
11681;SDS011;5897;42.640;23.310;2023-10-08T14:23:19;9.93;;;2.67;;
11681;SDS011;5897;42.640;23.310;2023-10-08T14:25:47;9.05;;;3.00;;
11681;SDS011;5897;42.640;23.310;2023-10-08T14:28:16;9.27;;;3.08;;
11681;SDS011;5897;42.640;23.310;2023-10-08T14:30:48;4.97;;;2.53;;
11681;SDS011;5897;42.640;23.310;2023-10-08T14:33:22;12.75;;;3.30;;
11681;SDS011;5897;42.640;23.310;2023-10-08T14:35:55;12.75;;;2.92;;
11681;SDS011;5897;42.640;23.310;2023-10-08T14:38:40;21.13;;;2.88;;
11681;SDS011;5897;42.640;23.310;2023-10-08T14:41:24;17.23;;;3.13;;
11681;SDS011;5897;42.640;23.310;2023-10-08T14:44:08;16.17;;;3.65;;
11681;SDS011;5897;42.640;23.310;2023-10-08T14:46:36;14.00;;;2.78;;
11681;SDS011;5897;42.640;23.310;2023-10-08T14:49:05;11.63;;;2.75;;
11681;SDS011;5897;42.640;23.310;2023-10-08T14:51:36;9.55;;;3.10;;
11681;SDS011;5897;42.640;23.310;2023-10-08T14:54:05;12.65;;;3.60;;
11681;SDS011;5897;42.640;23.310;2023-10-08T14:56:33;12.18;;;3.10;;
11681;SDS011;5897;42.640;23.310;2023-10-08T14:59:02;13.32;;;3.40;;
11681;SDS011;5897;42.640;23.310;2023-10-08T15:01:29;10.30;;;3.33;;
11681;SDS011;5897;42.640;23.310;2023-10-08T15:03:58;18.13;;;3.35;;
11681;SDS011;5897;42.640;23.310;2023-10-08T15:06:30;12.38;;;3.35;;
11681;SDS011;5897;42.640;23.310;2023-10-08T15:08:57;11.75;;;3.42;;
11681;SDS011;5897;42.640;23.310;2023-10-08T15:11:24;9.73;;;3.08;;
11681;SDS011;5897;42.640;23.310;2023-10-08T15:13:52;11.13;;;3.55;;
11681;SDS011;5897;42.640;23.310;2023-10-08T15:16:20;11.13;;;3.03;;